Time;durP1;ratioP1;P1;durP2;ratioP2;P2;SDS_P1;SDS_P2;PMS_P1;PMS_P2;Temp;Humidity;BMP_temperature;BMP_pressure;BME280_temperature;BME280_humidity;BME280_pressure;Samples;Min_cycle;Max_cycle;Signal;HPM_P1;HPM_P2
2024/04/19 00:01:35;;;;;;;12.43;9.38;;;;;;;;;;5376654;26;20239;-67
2024/04/19 00:04:02;;;;;;;11.27;10.18;;;;;;;;;;5376340;26;20277;-68
2024/04/19 00:06:30;;;;;;;9.85;8.65;;;;;;;;;;5376500;26;20228;-67
2024/04/19 00:08:57;;;;;;;11.50;10.30;;;;;;;;;;5376211;26;20594;-67
2024/04/19 00:11:26;;;;;;;12.15;10.93;;;;;;;;;;5334002;26;20237;-67
2024/04/19 00:13:52;;;;;;;11.35;10.13;;;;;;;;;;5307209;27;20241;-67
2024/04/19 00:16:21;;;;;;;11.40;9.40;;;;;;;;;;5307012;27;20489;-67
2024/04/19 00:18:50;;;;;;;11.88;10.68;;;;;;;;;;5306949;27;20284;-67
2024/04/19 00:21:18;;;;;;;14.18;11.50;;;;;;;;;;5310930;26;20237;-67
2024/04/19 00:23:45;;;;;;;13.30;10.93;;;;;;;;;;5326028;26;20272;-67
2024/04/19 00:26:14;;;;;;;12.82;11.35;;;;;;;;;;5306528;27;20229;-68
2024/04/19 00:28:40;;;;;;;17.58;10.73;;;;;;;;;;5333931;26;20236;-67
2024/04/19 00:31:09;;;;;;;12.25;10.70;;;;;;;;;;5370363;26;20282;-67
2024/04/19 00:33:35;;;;;;;12.07;10.68;;;;;;;;;;5376014;26;20235;-67
2024/04/19 00:36:07;;;;;;;13.50;11.32;;;;;;;;;;5377627;26;20270;-67
2024/04/19 00:38:33;;;;;;;14.52;10.95;;;;;;;;;;5379721;26;20243;-67
2024/04/19 00:41:02;;;;;;;11.38;10.07;;;;;;;;;;5351422;26;20530;-67
2024/04/19 00:43:28;;;;;;;11.73;10.52;;;;;;;;;;5344609;26;20255;-67
2024/04/19 00:45:57;;;;;;;13.80;10.77;;;;;;;;;;5344331;26;20224;-67
2024/04/19 00:48:25;;;;;;;11.90;10.52;;;;;;;;;;5344510;26;20288;-67
2024/04/19 00:50:56;;;;;;;12.50;11.20;;;;;;;;;;5368778;26;20243;-67
2024/04/19 00:53:26;;;;;;;11.20;9.95;;;;;;;;;;5379454;26;20604;-67
2024/04/19 00:55:56;;;;;;;14.23;10.65;;;;;;;;;;5377820;26;20231;-67
2024/04/19 00:58:23;;;;;;;12.25;10.95;;;;;;;;;;5379409;26;20235;-74
2024/04/19 01:00:53;;;;;;;14.10;11.30;;;;;;;;;;5354343;26;20244;-67
2024/04/19 01:03:19;;;;;;;13.73;10.75;;;;;;;;;;5343559;26;20225;-68
2024/04/19 01:05:48;;;;;;;11.98;10.20;;;;;;;;;;5344127;26;20737;-68
2024/04/19 01:08:14;;;;;;;12.15;9.50;;;;;;;;;;5344097;26;20244;-67
2024/04/19 01:10:46;;;;;;;12.63;11.32;;;;;;;;;;5365212;26;20239;-67
2024/04/19 01:13:12;;;;;;;14.27;9.93;;;;;;;;;;5379441;26;20262;-67
2024/04/19 01:15:41;;;;;;;14.07;10.10;;;;;;;;;;5373011;26;20814;-67
2024/04/19 01:18:07;;;;;;;10.90;9.77;;;;;;;;;;5343973;26;20843;-67
2024/04/19 01:20:36;;;;;;;12.40;10.45;;;;;;;;;;5363520;26;20243;-67
2024/04/19 01:23:03;;;;;;;12.70;10.57;;;;;;;;;;5379360;26;20642;-67
2024/04/19 01:25:34;;;;;;;14.65;10.73;;;;;;;;;;5355793;26;20715;-67
2024/04/19 01:28:05;;;;;;;16.58;11.05;;;;;;;;;;5343191;26;20583;-67
2024/04/19 01:30:34;;;;;;;11.90;10.07;;;;;;;;;;5361906;26;20243;-67
2024/04/19 01:33:00;;;;;;;12.50;10.85;;;;;;;;;;5363709;26;20241;-67
2024/04/19 01:35:29;;;;;;;11.75;10.55;;;;;;;;;;5328790;26;20279;-67
2024/04/19 01:37:55;;;;;;;12.18;10.35;;;;;;;;;;5344318;26;20711;-67
2024/04/19 01:40:24;;;;;;;12.73;10.45;;;;;;;;;;5337088;26;20237;-67
2024/04/19 01:42:50;;;;;;;14.35;11.15;;;;;;;;;;5331271;26;20723;-67
2024/04/19 01:45:22;;;;;;;16.58;10.82;;;;;;;;;;5342900;26;20698;-67
2024/04/19 01:47:48;;;;;;;13.30;10.25;;;;;;;;;;5344148;26;20236;-67
2024/04/19 01:50:17;;;;;;;15.95;10.20;;;;;;;;;;5337774;26;20724;-67
2024/04/19 01:52:44;;;;;;;11.80;10.60;;;;;;;;;;5321097;26;20665;-67
2024/04/19 01:55:14;;;;;;;10.15;9.18;;;;;;;;;;5340091;26;20283;-67
2024/04/19 01:57:40;;;;;;;11.32;9.90;;;;;;;;;;5331928;26;20241;-67
2024/04/19 02:00:10;;;;;;;11.55;9.98;;;;;;;;;;5333566;26;20598;-67
2024/04/19 02:02:39;;;;;;;13.27;9.52;;;;;;;;;;5366386;26;20327;-74
2024/04/19 02:05:08;;;;;;;10.82;9.48;;;;;;;;;;5308713;27;20724;-67
2024/04/19 02:07:34;;;;;;;11.57;10.38;;;;;;;;;;5311306;26;20551;-67
2024/04/19 02:10:03;;;;;;;15.05;9.90;;;;;;;;;;5339662;26;20249;-67
2024/04/19 02:12:30;;;;;;;12.85;10.40;;;;;;;;;;5309071;27;20264;-74
2024/04/19 02:14:59;;;;;;;13.10;9.60;;;;;;;;;;5308746;26;20257;-74
2024/04/19 02:17:25;;;;;;;17.98;9.40;;;;;;;;;;5309342;27;20230;-67
2024/04/19 02:19:57;;;;;;;20.00;9.93;;;;;;;;;;5325141;26;20286;-74
2024/04/19 02:22:23;;;;;;;12.80;9.40;;;;;;;;;;5312500;26;20230;-67
2024/04/19 02:24:52;;;;;;;13.10;10.18;;;;;;;;;;5312091;26;20283;-75
2024/04/19 02:30:52;;;;;;;11.95;9.65;;;;;;;;;;5321090;26;20688;-67
2024/04/19 02:32:57;;;;;;;13.65;8.93;;;;;;;;;;5378251;26;20223;-67
2024/04/19 02:35:28;;;;;;;12.63;10.00;;;;;;;;;;5316453;26;20288;-75
2024/04/19 02:37:57;;;;;;;23.70;9.45;;;;;;;;;;5346165;26;20604;-67
2024/04/19 02:40:26;;;;;;;16.45;8.85;;;;;;;;;;5346433;26;20240;-74
2024/04/19 02:42:55;;;;;;;13.65;9.13;;;;;;;;;;5309010;27;20234;-67
2024/04/19 02:45:24;;;;;;;10.77;8.55;;;;;;;;;;5308470;27;20849;-67
2024/04/19 02:47:53;;;;;;;10.70;8.73;;;;;;;;;;5317595;26;20240;-75
2024/04/19 02:50:19;;;;;;;12.55;9.55;;;;;;;;;;5319068;26;20736;-74
2024/04/19 02:52:50;;;;;;;10.38;8.93;;;;;;;;;;5310344;26;20658;-67
2024/04/19 02:55:19;;;;;;;9.95;8.88;;;;;;;;;;5336928;26;20295;-67
2024/04/19 02:57:48;;;;;;;12.38;8.73;;;;;;;;;;5308018;27;20673;-74
2024/04/19 03:00:17;;;;;;;14.23;10.60;;;;;;;;;;5334324;26;20247;-67
2024/04/19 03:02:46;;;;;;;10.45;9.05;;;;;;;;;;5378097;26;20223;-67
2024/04/19 03:05:15;;;;;;;14.70;8.48;;;;;;;;;;5324286;26;20354;-74
2024/04/19 03:07:44;;;;;;;15.75;9.65;;;;;;;;;;5342095;26;20263;-74
2024/04/19 03:10:16;;;;;;;16.05;9.85;;;;;;;;;;5351350;26;20243;-76
2024/04/19 03:12:44;;;;;;;11.32;8.13;;;;;;;;;;5308900;27;20582;-67
2024/04/19 03:15:13;;;;;;;14.15;9.63;;;;;;;;;;5308264;26;20735;-74
2024/04/19 03:17:42;;;;;;;11.38;8.13;;;;;;;;;;5310488;26;20276;-67
2024/04/19 03:20:12;;;;;;;16.05;8.43;;;;;;;;;;5329526;26;20801;-67
2024/04/19 03:22:41;;;;;;;11.40;8.27;;;;;;;;;;5341183;26;20770;-67
2024/04/19 03:25:08;;;;;;;10.50;8.27;;;;;;;;;;5342499;26;20696;-74
2024/04/19 03:27:39;;;;;;;13.13;9.45;;;;;;;;;;5315164;26;20230;-67
2024/04/19 03:30:08;;;;;;;10.63;8.52;;;;;;;;;;5327972;26;20293;-67
2024/04/19 03:32:37;;;;;;;10.77;8.25;;;;;;;;;;5377711;26;20254;-67
2024/04/19 03:35:06;;;;;;;14.10;8.18;;;;;;;;;;5345833;26;20276;-67
2024/04/19 03:37:35;;;;;;;12.80;8.13;;;;;;;;;;5331541;26;20274;-74
2024/04/19 03:40:04;;;;;;;10.18;8.70;;;;;;;;;;5368340;26;20291;-67
2024/04/19 03:42:35;;;;;;;11.98;8.60;;;;;;;;;;5311969;26;20350;-74
2024/04/19 03:47:51;;;;;;;11.70;9.00;;;;;;;;;;5307809;26;20314;-75
2024/04/19 03:50:20;;;;;;;12.68;8.18;;;;;;;;;;5343886;26;20344;-75
2024/04/19 03:52:49;;;;;;;8.80;7.68;;;;;;;;;;5377363;26;20258;-67
2024/04/19 03:55:18;;;;;;;8.45;7.57;;;;;;;;;;5373733;26;20905;-75
2024/04/19 03:57:47;;;;;;;9.80;8.13;;;;;;;;;;5335581;26;20232;-67
2024/04/19 04:00:18;;;;;;;13.13;8.60;;;;;;;;;;5344038;26;20577;-74
2024/04/19 04:02:47;;;;;;;7.53;6.53;;;;;;;;;;5337955;26;20869;-67
2024/04/19 04:05:17;;;;;;;12.63;8.50;;;;;;;;;;5341768;26;20239;-75
2024/04/19 04:07:46;;;;;;;9.93;8.18;;;;;;;;;;5342175;26;20734;-67
2024/04/19 04:10:14;;;;;;;12.68;7.60;;;;;;;;;;5338361;26;20356;-67
2024/04/19 04:12:43;;;;;;;12.23;8.18;;;;;;;;;;5335919;26;20260;-67
2024/04/19 04:15:12;;;;;;;13.30;7.90;;;;;;;;;;5324476;26;20741;-67
2024/04/19 04:17:44;;;;;;;12.00;7.57;;;;;;;;;;5333083;26;20586;-67
2024/04/19 04:20:12;;;;;;;10.23;8.40;;;;;;;;;;5351110;26;20366;-66
2024/04/19 04:22:41;;;;;;;10.38;8.82;;;;;;;;;;5345013;26;20232;-67
2024/04/19 04:25:10;;;;;;;11.82;8.43;;;;;;;;;;5341124;26;20244;-74
2024/04/19 04:27:39;;;;;;;11.60;8.90;;;;;;;;;;5318029;26;20238;-67
2024/04/19 04:30:09;;;;;;;12.48;8.05;;;;;;;;;;5321993;26;20307;-74
2024/04/19 04:32:38;;;;;;;9.77;8.25;;;;;;;;;;5351482;26;20259;-74
2024/04/19 04:35:09;;;;;;;11.30;8.18;;;;;;;;;;5338037;26;20256;-74
2024/04/19 04:37:39;;;;;;;11.90;8.82;;;;;;;;;;5341063;26;20266;-74
2024/04/19 04:40:08;;;;;;;13.68;8.90;;;;;;;;;;5333558;26;20364;-67
2024/04/19 04:42:35;;;;;;;14.05;9.02;;;;;;;;;;5334421;26;20237;-74
2024/04/19 04:45:04;;;;;;;10.98;8.38;;;;;;;;;;5313978;26;20241;-67
2024/04/19 04:47:32;;;;;;;13.52;8.98;;;;;;;;;;5307724;27;20225;-74
2024/04/19 04:50:01;;;;;;;9.85;7.95;;;;;;;;;;5323423;26;20273;-67
2024/04/19 04:52:33;;;;;;;9.90;8.38;;;;;;;;;;5348359;26;20240;-74
2024/04/19 04:55:02;;;;;;;15.80;7.55;;;;;;;;;;5307149;26;20580;-74
2024/04/19 04:57:31;;;;;;;15.15;8.73;;;;;;;;;;5308727;26;21168;-74
2024/04/19 05:00:00;;;;;;;14.15;9.13;;;;;;;;;;5312487;26;20243;-69
2024/04/19 05:02:28;;;;;;;10.95;7.80;;;;;;;;;;5336000;26;20796;-67
2024/04/19 05:04:57;;;;;;;11.23;8.07;;;;;;;;;;5323878;26;20616;-67
2024/04/19 05:07:25;;;;;;;12.73;7.90;;;;;;;;;;5338963;26;20694;-68
2024/04/19 05:09:56;;;;;;;15.52;9.82;;;;;;;;;;5340223;26;20241;-67
2024/04/19 05:12:25;;;;;;;14.65;9.60;;;;;;;;;;5341060;26;20240;-66
2024/04/19 05:14:54;;;;;;;10.65;8.57;;;;;;;;;;5322515;26;20327;-70
2024/04/19 05:17:23;;;;;;;11.13;8.32;;;;;;;;;;5339007;26;20584;-67
2024/04/19 05:19:52;;;;;;;12.50;9.45;;;;;;;;;;5321522;26;20617;-67
2024/04/19 05:22:21;;;;;;;10.02;8.48;;;;;;;;;;5367508;26;20229;-74
2024/04/19 05:24:50;;;;;;;10.55;8.10;;;;;;;;;;5324971;26;20722;-74
2024/04/19 05:27:22;;;;;;;13.70;8.02;;;;;;;;;;5329989;26;20282;-67
2024/04/19 05:29:51;;;;;;;11.80;7.53;;;;;;;;;;5314982;26;20608;-74
2024/04/19 05:32:20;;;;;;;10.65;7.47;;;;;;;;;;5378639;26;20348;-67
2024/04/19 05:34:48;;;;;;;9.15;7.60;;;;;;;;;;5376526;26;20650;-74
2024/04/19 05:37:19;;;;;;;9.50;7.68;;;;;;;;;;5337338;26;20237;-74
2024/04/19 05:39:48;;;;;;;12.77;7.75;;;;;;;;;;5312899;26;20724;-74
2024/04/19 05:42:16;;;;;;;10.23;8.70;;;;;;;;;;5355050;26;20244;-75
2024/04/19 05:44:48;;;;;;;9.02;8.13;;;;;;;;;;5315416;26;20241;-67
2024/04/19 05:47:17;;;;;;;10.65;8.25;;;;;;;;;;5331763;26;20589;-74
2024/04/19 05:49:46;;;;;;;8.52;7.60;;;;;;;;;;5330588;26;20343;-67
2024/04/19 05:52:15;;;;;;;11.15;9.90;;;;;;;;;;5351780;26;20740;-74
2024/04/19 05:54:44;;;;;;;10.88;8.75;;;;;;;;;;5321854;26;20244;-71
2024/04/19 05:57:13;;;;;;;8.63;7.82;;;;;;;;;;5339703;26;20236;-74
2024/04/19 05:59:39;;;;;;;10.27;7.72;;;;;;;;;;5339187;26;20236;-74
2024/04/19 06:02:11;;;;;;;8.43;7.57;;;;;;;;;;5309045;27;20327;-68
2024/04/19 06:04:40;;;;;;;9.13;8.20;;;;;;;;;;5311917;26;20249;-66
2024/04/19 06:07:08;;;;;;;10.80;8.02;;;;;;;;;;5342911;26;20560;-70
2024/04/19 06:09:37;;;;;;;7.15;6.43;;;;;;;;;;5308961;26;20296;-73
2024/04/19 06:12:06;;;;;;;10.55;7.10;;;;;;;;;;5334447;26;20238;-68
2024/04/19 06:14:35;;;;;;;8.50;6.88;;;;;;;;;;5308771;27;20241;-71
2024/04/19 06:17:04;;;;;;;11.52;7.35;;;;;;;;;;5308218;26;20606;-78
2024/04/19 06:19:36;;;;;;;10.57;6.60;;;;;;;;;;5308959;27;20237;-68
2024/04/19 06:22:05;;;;;;;8.98;6.88;;;;;;;;;;5375398;26;20231;-67
2024/04/19 06:24:34;;;;;;;8.63;7.20;;;;;;;;;;5378313;26;20235;-71
2024/04/19 06:27:02;;;;;;;8.02;7.25;;;;;;;;;;5378533;26;20865;-69
2024/04/19 06:29:31;;;;;;;7.40;6.72;;;;;;;;;;5377861;26;20721;-68
2024/04/19 06:32:01;;;;;;;8.65;7.05;;;;;;;;;;5345650;26;20263;-70
2024/04/19 06:34:30;;;;;;;8.65;6.60;;;;;;;;;;5341779;26;20295;-68
2024/04/19 06:37:02;;;;;;;7.65;6.88;;;;;;;;;;5347557;26;20254;-69
2024/04/19 06:39:31;;;;;;;8.68;7.82;;;;;;;;;;5343299;26;20330;-69
2024/04/19 06:42:00;;;;;;;7.18;6.47;;;;;;;;;;5374841;26;20223;-67
2024/04/19 06:44:29;;;;;;;8.13;7.10;;;;;;;;;;5377867;26;20377;-66
2024/04/19 06:46:58;;;;;;;7.80;7.13;;;;;;;;;;5391019;26;20247;-71
2024/04/19 06:49:27;;;;;;;7.45;6.75;;;;;;;;;;5380295;26;20756;-73
2024/04/19 06:51:56;;;;;;;7.53;6.72;;;;;;;;;;5346832;26;20263;-72
2024/04/19 06:54:27;;;;;;;14.07;8.40;;;;;;;;;;5342969;26;20236;-65
2024/04/19 06:56:56;;;;;;;8.80;7.32;;;;;;;;;;5342894;26;20220;-67
2024/04/19 06:59:22;;;;;;;7.50;6.80;;;;;;;;;;5342189;26;20723;-71
2024/04/19 07:01:51;;;;;;;8.75;7.05;;;;;;;;;;5345739;26;20232;-67
2024/04/19 07:04:20;;;;;;;9.07;7.90;;;;;;;;;;5342611;26;20660;-68
2024/04/19 07:06:49;;;;;;;7.90;7.10;;;;;;;;;;5340427;26;20228;-68
2024/04/19 07:09:18;;;;;;;11.07;7.38;;;;;;;;;;5339967;26;20562;-67
2024/04/19 07:11:50;;;;;;;9.85;7.85;;;;;;;;;;5371146;26;20231;-74
2024/04/19 07:14:18;;;;;;;9.25;7.22;;;;;;;;;;5376570;26;20315;-66
2024/04/19 07:16:47;;;;;;;8.23;7.22;;;;;;;;;;5340655;26;20248;-70
2024/04/19 07:19:16;;;;;;;14.45;8.93;;;;;;;;;;5353984;26;20735;-66
2024/04/19 07:21:45;;;;;;;8.57;7.20;;;;;;;;;;5344727;26;20240;-77
2024/04/19 07:24:14;;;;;;;9.15;7.35;;;;;;;;;;5342897;26;20244;-65
2024/04/19 07:26:43;;;;;;;8.60;7.70;;;;;;;;;;5342585;26;20267;-71
2024/04/19 07:29:14;;;;;;;11.18;6.80;;;;;;;;;;5342084;26;20252;-70
2024/04/19 07:31:43;;;;;;;8.68;6.93;;;;;;;;;;5365927;26;20333;-72
2024/04/19 07:34:12;;;;;;;7.60;6.90;;;;;;;;;;5342295;26;20252;-77
2024/04/19 07:36:41;;;;;;;7.57;6.85;;;;;;;;;;5365679;26;20235;-72
2024/04/19 07:39:10;;;;;;;10.70;8.02;;;;;;;;;;5377592;26;20741;-75
2024/04/19 07:41:40;;;;;;;8.32;7.53;;;;;;;;;;5351620;26;20248;-73
2024/04/19 07:44:09;;;;;;;9.35;8.00;;;;;;;;;;5341815;26;20282;-74
2024/04/19 07:46:40;;;;;;;8.77;7.88;;;;;;;;;;5342373;26;20224;-69
2024/04/19 07:49:09;;;;;;;9.85;8.93;;;;;;;;;;5341948;26;20241;-75
2024/04/19 07:51:38;;;;;;;9.88;8.88;;;;;;;;;;5366534;26;20236;-74
2024/04/19 07:54:07;;;;;;;10.35;9.30;;;;;;;;;;5376891;26;20290;-67
2024/04/19 07:56:36;;;;;;;9.05;8.13;;;;;;;;;;5377029;26;20579;-65
2024/04/19 07:59:05;;;;;;;10.35;8.40;;;;;;;;;;5375620;26;20725;-75
2024/04/19 08:01:34;;;;;;;9.95;8.35;;;;;;;;;;5361307;26;20346;-73
2024/04/19 08:04:06;;;;;;;9.20;8.27;;;;;;;;;;5348845;26;20233;-68
2024/04/19 08:06:34;;;;;;;13.68;10.00;;;;;;;;;;5341608;26;20333;-67
2024/04/19 08:09:03;;;;;;;11.70;9.32;;;;;;;;;;5341836;26;20629;-67
2024/04/19 08:11:32;;;;;;;12.95;9.77;;;;;;;;;;5364718;26;20598;-75
2024/04/19 08:14:01;;;;;;;12.25;9.43;;;;;;;;;;5376129;26;20243;-77
2024/04/19 08:16:30;;;;;;;11.63;8.52;;;;;;;;;;5366561;26;20240;-72
2024/04/19 08:18:59;;;;;;;9.57;8.65;;;;;;;;;;5341077;26;20236;-72
2024/04/19 08:21:30;;;;;;;9.45;8.55;;;;;;;;;;5362547;26;20617;-73
2024/04/19 08:24:01;;;;;;;8.88;7.97;;;;;;;;;;5357571;26;20782;-72
2024/04/19 08:26:30;;;;;;;10.82;8.48;;;;;;;;;;5341734;26;20667;-75
2024/04/19 08:28:59;;;;;;;8.07;7.05;;;;;;;;;;5341998;26;20553;-73
2024/04/19 08:31:27;;;;;;;9.60;8.63;;;;;;;;;;5362694;26;20737;-77
2024/04/19 08:33:56;;;;;;;8.18;7.45;;;;;;;;;;5376469;26;20239;-65
2024/04/19 08:36:25;;;;;;;10.00;7.45;;;;;;;;;;5375828;26;20235;-68
2024/04/19 08:38:57;;;;;;;8.50;7.68;;;;;;;;;;5376417;26;20289;-72
2024/04/19 08:41:29;;;;;;;8.10;7.28;;;;;;;;;;5355464;26;20267;-76
2024/04/19 08:43:59;;;;;;;7.95;7.22;;;;;;;;;;5341529;26;20725;-62
2024/04/19 08:46:32;;;;;;;6.53;5.82;;;;;;;;;;5345830;26;20232;-71
2024/04/19 08:49:01;;;;;;;8.38;7.25;;;;;;;;;;5341391;26;20287;-75
2024/04/19 08:51:32;;;;;;;7.18;6.57;;;;;;;;;;5362113;26;20243;-69
2024/04/19 08:54:03;;;;;;;8.95;6.32;;;;;;;;;;5375714;26;20281;-75
2024/04/19 08:56:32;;;;;;;8.00;7.20;;;;;;;;;;5377030;26;20253;-72
2024/04/19 08:59:01;;;;;;;8.50;7.60;;;;;;;;;;5378571;26;20235;-66
2024/04/19 09:01:28;;;;;;;9.25;8.35;;;;;;;;;;5356928;26;20706;-70
2024/04/19 09:03:57;;;;;;;7.80;7.03;;;;;;;;;;5343795;26;20291;-69
2024/04/19 09:06:27;;;;;;;8.82;7.90;;;;;;;;;;5343891;26;20778;-71
2024/04/19 09:08:57;;;;;;;7.30;6.60;;;;;;;;;;5343929;26;20753;-68
2024/04/19 09:11:28;;;;;;;7.00;6.30;;;;;;;;;;5364283;26;20636;-70
2024/04/19 09:13:58;;;;;;;7.72;7.03;;;;;;;;;;5378872;26;20924;-73
2024/04/19 09:16:27;;;;;;;7.50;6.80;;;;;;;;;;5361028;26;20746;-69
2024/04/19 09:18:56;;;;;;;8.70;7.85;;;;;;;;;;5343330;26;20613;-73
2024/04/19 09:21:24;;;;;;;6.93;6.32;;;;;;;;;;5363585;26;20232;-74
2024/04/19 09:23:54;;;;;;;10.23;7.75;;;;;;;;;;5361777;26;20341;-67
2024/04/19 09:26:24;;;;;;;6.60;5.95;;;;;;;;;;5343786;26;20766;-68
2024/04/19 09:28:55;;;;;;;7.15;6.45;;;;;;;;;;5365786;26;20239;-72
2024/04/19 09:31:24;;;;;;;6.40;5.90;;;;;;;;;;5363128;26;20254;-70
2024/04/19 09:33:53;;;;;;;8.15;7.15;;;;;;;;;;5378624;26;20281;-71
2024/04/19 09:36:22;;;;;;;8.95;6.50;;;;;;;;;;5384484;26;20232;-70
2024/04/19 09:38:53;;;;;;;7.70;6.97;;;;;;;;;;5381131;26;20278;-72
2024/04/19 09:41:25;;;;;;;7.82;7.13;;;;;;;;;;5360442;26;20240;-72
2024/04/19 09:43:58;;;;;;;8.15;7.43;;;;;;;;;;5343094;26;20279;-70
2024/04/19 09:46:25;;;;;;;8.45;7.70;;;;;;;;;;5343662;26;20726;-69
2024/04/19 09:48:55;;;;;;;7.15;6.45;;;;;;;;;;5343415;26;20275;-71
2024/04/19 09:51:25;;;;;;;7.65;6.85;;;;;;;;;;5361438;26;20267;-64
2024/04/19 09:53:56;;;;;;;9.50;8.10;;;;;;;;;;5340809;26;20537;-69
2024/04/19 09:56:30;;;;;;;7.20;6.38;;;;;;;;;;5343701;26;20225;-72
2024/04/19 09:59:02;;;;;;;7.72;6.45;;;;;;;;;;5343455;26;20232;-72
2024/04/19 10:01:31;;;;;;;7.22;6.60;;;;;;;;;;5362576;26;20248;-69
2024/04/19 10:04:03;;;;;;;7.68;6.15;;;;;;;;;;5378240;26;20678;-70
2024/04/19 10:06:35;;;;;;;8.80;7.90;;;;;;;;;;5377812;26;20492;-78
2024/04/19 10:09:08;;;;;;;9.30;8.40;;;;;;;;;;5358457;26;20240;-72
2024/04/19 10:11:37;;;;;;;7.80;7.07;;;;;;;;;;5347029;26;20326;-70
2024/04/19 10:14:09;;;;;;;8.75;7.97;;;;;;;;;;5346463;26;20832;-72
2024/04/19 10:16:39;;;;;;;8.48;7.47;;;;;;;;;;5345758;26;20240;-69
2024/04/19 10:19:08;;;;;;;10.70;7.68;;;;;;;;;;5345637;26;20260;-73
2024/04/19 10:21:39;;;;;;;10.40;7.53;;;;;;;;;;5366581;26;20270;-71
2024/04/19 10:24:12;;;;;;;8.45;7.70;;;;;;;;;;5380850;26;20283;-70
2024/04/19 10:26:41;;;;;;;8.38;7.55;;;;;;;;;;5380760;26;20223;-66
2024/04/19 10:29:15;;;;;;;9.52;7.68;;;;;;;;;;5380686;26;20298;-64
2024/04/19 10:31:46;;;;;;;9.48;7.95;;;;;;;;;;5358580;26;20240;-71
2024/04/19 10:34:16;;;;;;;10.63;7.32;;;;;;;;;;5345792;26;20252;-72
2024/04/19 10:36:45;;;;;;;8.50;7.72;;;;;;;;;;5345513;26;20236;-71
2024/04/19 10:39:14;;;;;;;7.97;7.15;;;;;;;;;;5345772;26;20275;-66
2024/04/19 10:41:48;;;;;;;8.77;7.97;;;;;;;;;;5372158;26;20265;-65
2024/04/19 10:44:19;;;;;;;11.10;7.78;;;;;;;;;;5380779;26;20247;-75
2024/04/19 10:46:50;;;;;;;7.80;7.00;;;;;;;;;;5380899;26;20270;-72
2024/04/19 10:49:20;;;;;;;7.93;7.13;;;;;;;;;;5381018;26;20247;-64
2024/04/19 10:51:50;;;;;;;9.27;7.45;;;;;;;;;;5356489;26;20738;-70
2024/04/19 10:54:19;;;;;;;7.13;6.50;;;;;;;;;;5362399;26;20247;-71
2024/04/19 10:56:45;;;;;;;11.15;7.47;;;;;;;;;;5351461;26;20606;-66
2024/04/19 10:59:14;;;;;;;7.65;6.90;;;;;;;;;;5341633;26;20706;-66
2024/04/19 11:01:46;;;;;;;8.27;7.43;;;;;;;;;;5341434;26;20324;-71
2024/04/19 11:04:15;;;;;;;7.55;6.47;;;;;;;;;;5345204;26;20244;-71
2024/04/19 11:06:44;;;;;;;7.10;6.47;;;;;;;;;;5342999;26;20232;-69
2024/04/19 11:09:16;;;;;;;10.60;8.07;;;;;;;;;;5340242;26;20869;-66
2024/04/19 11:11:45;;;;;;;8.30;7.43;;;;;;;;;;5347927;26;20733;-71
2024/04/19 11:14:15;;;;;;;8.15;6.47;;;;;;;;;;5347329;26;20241;-69
2024/04/19 11:16:48;;;;;;;8.52;7.45;;;;;;;;;;5347053;26;20240;-70
2024/04/19 11:19:17;;;;;;;9.18;7.45;;;;;;;;;;5343549;26;20291;-70
2024/04/19 11:21:47;;;;;;;8.50;7.70;;;;;;;;;;5370462;26;20842;-66
2024/04/19 11:24:19;;;;;;;7.75;7.05;;;;;;;;;;5357845;26;20244;-70
2024/04/19 11:26:47;;;;;;;9.20;8.30;;;;;;;;;;5348369;26;20240;-70
2024/04/19 11:29:16;;;;;;;14.82;10.38;;;;;;;;;;5340779;26;20350;-70
2024/04/19 11:31:48;;;;;;;20.00;13.63;;;;;;;;;;5343949;26;20342;-70
2024/04/19 11:34:17;;;;;;;31.70;23.98;;;;;;;;;;5342124;26;20793;-71
2024/04/19 11:36:47;;;;;;;16.58;14.98;;;;;;;;;;5342295;26;20271;-65
2024/04/19 11:39:16;;;;;;;12.43;11.18;;;;;;;;;;5339509;26;20248;-70
2024/04/19 11:41:42;;;;;;;15.90;14.20;;;;;;;;;;5344424;26;20259;-65
2024/04/19 11:44:11;;;;;;;14.07;10.73;;;;;;;;;;5343004;26;20645;-69
2024/04/19 11:46:44;;;;;;;9.32;7.03;;;;;;;;;;5342991;26;20595;-69
2024/04/19 11:49:17;;;;;;;8.48;6.90;;;;;;;;;;5342475;26;20632;-66
2024/04/19 11:51:47;;;;;;;7.85;6.93;;;;;;;;;;5343324;26;20356;-70
2024/04/19 11:54:13;;;;;;;11.13;7.10;;;;;;;;;;5335245;26;20738;-69
2024/04/19 11:56:42;;;;;;;8.18;6.78;;;;;;;;;;5344039;26;20248;-68
2024/04/19 11:59:17;;;;;;;18.40;15.38;;;;;;;;;;5344347;26;20785;-62
2024/04/19 12:01:46;;;;;;;38.20;30.40;;;;;;;;;;5345627;26;20322;-69
2024/04/19 12:04:18;;;;;;;44.80;33.65;;;;;;;;;;5342822;26;20255;-60
2024/04/19 12:06:46;;;;;;;12.93;11.27;;;;;;;;;;5343398;26;20258;-60
2024/04/19 12:09:16;;;;;;;18.15;16.35;;;;;;;;;;5337198;26;20793;-67
2024/04/19 12:11:46;;;;;;;8.10;7.15;;;;;;;;;;5344956;26;20236;-70
2024/04/19 12:14:16;;;;;;;8.80;8.00;;;;;;;;;;5336394;26;20244;-63
2024/04/19 12:16:45;;;;;;;9.00;5.63;;;;;;;;;;5338437;26;20240;-65
2024/04/19 12:19:14;;;;;;;8.13;7.32;;;;;;;;;;5345666;26;20287;-72
2024/04/19 12:21:45;;;;;;;8.32;7.53;;;;;;;;;;5341864;26;20240;-69
2024/04/19 12:24:14;;;;;;;7.53;6.07;;;;;;;;;;5335354;26;20282;-62
2024/04/19 12:26:43;;;;;;;6.80;6.20;;;;;;;;;;5338050;26;20987;-70
2024/04/19 12:29:12;;;;;;;5.80;5.40;;;;;;;;;;5341182;26;20287;-72
2024/04/19 12:31:41;;;;;;;6.35;5.45;;;;;;;;;;5344079;26;21160;-71
2024/04/19 12:34:10;;;;;;;6.10;5.50;;;;;;;;;;5371113;26;20326;-69
2024/04/19 12:36:37;;;;;;;8.38;5.10;;;;;;;;;;5343334;26;20236;-64
2024/04/19 12:39:09;;;;;;;6.78;6.10;;;;;;;;;;5342391;26;20365;-63
2024/04/19 12:41:37;;;;;;;7.20;6.50;;;;;;;;;;5360683;26;20263;-66
2024/04/19 12:44:07;;;;;;;5.80;5.40;;;;;;;;;;5344870;26;20597;-75
2024/04/19 12:46:36;;;;;;;4.72;4.40;;;;;;;;;;5343451;26;20236;-72
2024/04/19 12:49:06;;;;;;;5.35;4.85;;;;;;;;;;5347857;26;20586;-66
2024/04/19 12:51:36;;;;;;;9.02;5.80;;;;;;;;;;5356919;26;20239;-73
2024/04/19 12:54:08;;;;;;;6.43;5.82;;;;;;;;;;5343713;26;20252;-65
2024/04/19 12:56:37;;;;;;;5.53;5.13;;;;;;;;;;5343720;26;20233;-71
2024/04/19 12:59:06;;;;;;;6.05;5.45;;;;;;;;;;5343159;26;20248;-73
2024/04/19 13:01:35;;;;;;;5.68;5.28;;;;;;;;;;5359142;26;20262;-65
2024/04/19 13:04:01;;;;;;;6.13;5.63;;;;;;;;;;5378525;26;20259;-65
2024/04/19 13:06:30;;;;;;;8.27;5.85;;;;;;;;;;5378260;26;20227;-66
2024/04/19 13:08:59;;;;;;;6.88;5.88;;;;;;;;;;5372221;26;20243;-65
2024/04/19 13:11:31;;;;;;;6.88;6.20;;;;;;;;;;5340816;26;20244;-72
2024/04/19 13:13:59;;;;;;;7.72;6.95;;;;;;;;;;5350207;26;20244;-75
2024/04/19 13:16:29;;;;;;;7.38;6.03;;;;;;;;;;5338795;26;20279;-73
2024/04/19 13:18:58;;;;;;;5.85;5.15;;;;;;;;;;5331193;26;20245;-67
2024/04/19 13:21:28;;;;;;;5.15;4.72;;;;;;;;;;5330397;26;20275;-64
2024/04/19 13:23:57;;;;;;;6.30;5.70;;;;;;;;;;5342413;26;20262;-74
2024/04/19 13:26:27;;;;;;;6.70;6.05;;;;;;;;;;5343370;26;20228;-64
2024/04/19 13:28:58;;;;;;;6.35;5.75;;;;;;;;;;5341486;26;20291;-63
2024/04/19 13:31:28;;;;;;;5.90;5.40;;;;;;;;;;5343405;26;20730;-76
2024/04/19 13:33:57;;;;;;;6.30;5.70;;;;;;;;;;5341875;26;20354;-75
2024/04/19 13:36:26;;;;;;;6.10;5.50;;;;;;;;;;5339138;26;20267;-75
2024/04/19 13:38:55;;;;;;;5.43;4.93;;;;;;;;;;5330156;26;20288;-75
2024/04/19 13:41:26;;;;;;;5.35;4.95;;;;;;;;;;5353723;26;20224;-74
2024/04/19 13:43:58;;;;;;;5.00;4.57;;;;;;;;;;5377772;26;20285;-75
2024/04/19 13:46:27;;;;;;;5.97;5.38;;;;;;;;;;5346023;26;20262;-73
2024/04/19 13:48:56;;;;;;;6.80;6.10;;;;;;;;;;5345113;26;20568;-75
2024/04/19 13:51:25;;;;;;;5.40;4.78;;;;;;;;;;5344490;26;20248;-73
2024/04/19 13:53:54;;;;;;;4.90;4.50;;;;;;;;;;5344820;26;20240;-76
2024/04/19 13:56:23;;;;;;;6.72;4.85;;;;;;;;;;5345121;26;20233;-76
2024/04/19 13:58:52;;;;;;;5.90;4.72;;;;;;;;;;5344584;26;20699;-63
2024/04/19 14:01:24;;;;;;;5.97;5.38;;;;;;;;;;5346194;26;20865;-76
2024/04/19 14:03:55;;;;;;;5.47;5.05;;;;;;;;;;5355798;26;20228;-64
2024/04/19 14:06:24;;;;;;;5.65;5.15;;;;;;;;;;5359591;26;20263;-76
2024/04/19 14:08:54;;;;;;;5.80;4.10;;;;;;;;;;5344319;26;20721;-63
2024/04/19 14:11:23;;;;;;;5.30;4.80;;;;;;;;;;5358087;26;20801;-63
2024/04/19 14:13:52;;;;;;;5.38;4.88;;;;;;;;;;5349707;26;20236;-64
2024/04/19 14:16:23;;;;;;;5.15;4.75;;;;;;;;;;5359869;26;20232;-64
2024/04/19 14:18:54;;;;;;;6.07;5.07;;;;;;;;;;5342046;26;20342;-74
2024/04/19 14:21:23;;;;;;;6.10;5.20;;;;;;;;;;5367237;26;20267;-63
2024/04/19 14:23:52;;;;;;;4.68;4.30;;;;;;;;;;5358478;26;20291;-74
2024/04/19 14:26:21;;;;;;;5.47;5.05;;;;;;;;;;5380175;26;20262;-64
2024/04/19 14:28:50;;;;;;;4.82;4.53;;;;;;;;;;5344709;26;20278;-74
2024/04/19 14:31:19;;;;;;;4.65;4.20;;;;;;;;;;5354846;26;20231;-74
2024/04/19 14:33:48;;;;;;;4.18;3.88;;;;;;;;;;5372282;26;20251;-73
2024/04/19 14:36:20;;;;;;;4.45;4.15;;;;;;;;;;5365017;26;20263;-72
2024/04/19 14:38:49;;;;;;;4.60;4.30;;;;;;;;;;5361657;26;20244;-68
2024/04/19 14:41:18;;;;;;;5.03;4.55;;;;;;;;;;5378072;26;20590;-72
2024/04/19 14:43:47;;;;;;;4.40;4.10;;;;;;;;;;5374327;26;20251;-72
2024/04/19 14:46:15;;;;;;;4.22;3.92;;;;;;;;;;5347290;26;20275;-72
2024/04/19 14:48:44;;;;;;;5.00;4.57;;;;;;;;;;5346620;26;20244;-64
2024/04/19 14:51:17;;;;;;;4.57;4.18;;;;;;;;;;5352056;26;20224;-73
2024/04/19 14:53:50;;;;;;;4.68;4.30;;;;;;;;;;5374019;26;20710;-66